Time;durP1;ratioP1;P1;durP2;ratioP2;P2;SDS_P1;SDS_P2;PMS_P1;PMS_P2;Temp;Humidity;BMP_temperature;BMP_pressure;BME280_temperature;BME280_humidity;BME280_pressure;Samples;Min_cycle;Max_cycle;Signal;HPM_P1;HPM_P2
2021/07/18 00:01:15;;;;;;;26.30;13.70;;;;;;;16.53;nan;97063.78;3592511;39;21174;-72
2021/07/18 00:03:43;;;;;;;21.57;12.00;;;;;;;16.55;nan;97057.41;3594428;39;20478;-71
2021/07/18 00:06:11;;;;;;;21.63;12.47;;;;;;;16.47;nan;97061.69;3592517;39;20904;-72
2021/07/18 00:08:39;;;;;;;19.70;11.40;;;;;;;16.50;nan;97061.41;3599366;39;20527;-72
2021/07/18 00:11:07;;;;;;;24.60;11.37;;;;;;;16.49;nan;97062.38;3590762;39;20555;-73
2021/07/18 00:13:36;;;;;;;22.03;11.93;;;;;;;16.48;nan;97072.09;3584078;39;20479;-72
2021/07/18 00:16:05;;;;;;;26.40;12.17;;;;;;;16.40;nan;97069.28;3592322;39;21246;-72
2021/07/18 00:18:33;;;;;;;20.37;10.77;;;;;;;16.39;nan;97073.72;3595524;39;20448;-72
2021/07/18 00:21:00;;;;;;;24.03;13.13;;;;;;;16.45;nan;97066.25;3585944;39;20455;-72
2021/07/18 00:23:28;;;;;;;22.73;11.37;;;;;;;16.34;nan;97069.81;3598265;39;20803;-73
2021/07/18 00:25:56;;;;;;;21.23;11.17;;;;;;;16.34;nan;97069.81;3593750;39;20468;-73
2021/07/18 00:28:24;;;;;;;20.80;13.43;;;;;;;16.22;nan;97071.69;3595322;39;20555;-72
2021/07/18 00:30:53;;;;;;;30.67;11.70;;;;;;;16.22;nan;97063.75;3593264;39;21129;-72
2021/07/18 00:33:21;;;;;;;27.13;11.17;;;;;;;16.26;nan;97067.81;3594198;39;20464;-73
2021/07/18 00:35:49;;;;;;;20.27;11.23;;;;;;;16.25;nan;97063.50;3593674;39;20547;-73
2021/07/18 00:38:19;;;;;;;22.20;11.10;;;;;;;16.24;nan;97063.63;3594048;39;20536;-73
2021/07/18 00:40:47;;;;;;;22.23;12.33;;;;;;;16.18;nan;97064.97;3596774;39;20486;-71
2021/07/18 00:43:15;;;;;;;21.27;11.07;;;;;;;15.94;nan;97071.34;3587795;39;20524;-73
2021/07/18 00:45:43;;;;;;;23.60;11.43;;;;;;;15.95;nan;97066.91;3593627;39;20464;-71
2021/07/18 00:48:12;;;;;;;21.80;12.03;;;;;;;15.88;nan;97058.66;3592787;39;20496;-72
2021/07/18 00:50:43;;;;;;;22.73;13.03;;;;;;;15.87;nan;97056.13;3591822;39;20510;-72
2021/07/18 00:53:11;;;;;;;22.57;12.40;;;;;;;15.81;nan;97052.19;3594792;39;20531;-71
2021/07/18 00:55:43;;;;;;;23.03;11.50;;;;;;;15.75;nan;97058.81;3592315;39;20762;-72
2021/07/18 00:58:13;;;;;;;29.80;11.70;;;;;;;15.70;nan;97061.00;3594466;39;20466;-71
2021/07/18 01:00:41;;;;;;;22.23;11.93;;;;;;;15.65;nan;97051.75;3582017;39;20716;-72
2021/07/18 01:03:12;;;;;;;30.53;12.87;;;;;;;15.60;nan;97047.69;3593595;39;21016;-70
2021/07/18 01:05:39;;;;;;;28.03;13.60;;;;;;;15.62;nan;97051.06;3593155;39;20834;-70
2021/07/18 01:08:07;;;;;;;35.50;13.40;;;;;;;15.52;nan;97046.63;3592822;39;20820;-72
2021/07/18 01:10:36;;;;;;;27.40;11.80;;;;;;;15.50;nan;97049.41;3593228;39;20456;-70
2021/07/18 01:13:04;;;;;;;38.97;13.40;;;;;;;15.51;nan;97047.63;3592088;39;20443;-72
2021/07/18 01:15:40;;;;;;;28.33;12.77;;;;;;;15.61;nan;97048.53;3591983;39;20464;-72
2021/07/18 01:18:08;;;;;;;26.43;13.93;;;;;;;15.59;nan;97050.47;3592520;39;20666;-71
2021/07/18 01:20:39;;;;;;;22.23;14.00;;;;;;;15.56;nan;97051.56;3582142;39;20900;-72
2021/07/18 01:23:08;;;;;;;21.93;14.20;;;;;;;15.54;nan;97042.94;3592214;39;20772;-71
2021/07/18 01:25:37;;;;;;;24.83;12.80;;;;;;;15.52;nan;97047.47;3595058;39;20474;-72
2021/07/18 01:28:07;;;;;;;28.13;14.27;;;;;;;15.55;nan;97044.59;3590933;39;20575;-72
2021/07/18 01:30:35;;;;;;;19.60;12.50;;;;;;;15.50;nan;97043.28;3592203;39;20905;-73
2021/07/18 01:33:04;;;;;;;28.50;11.23;;;;;;;15.49;nan;97046.91;3592163;39;20474;-73
2021/07/18 01:35:32;;;;;;;21.50;11.00;;;;;;;15.35;nan;97048.03;3591031;39;20760;-71
2021/07/18 01:38:00;;;;;;;19.50;11.17;;;;;;;15.29;nan;97044.09;3593633;39;20761;-74
2021/07/18 01:40:29;;;;;;;21.90;9.40;;;;;;;15.21;nan;97049.97;3595873;39;20770;-73
2021/07/18 01:42:57;;;;;;;14.30;9.00;;;;;;;15.18;nan;97047.56;3592109;39;20759;-71
2021/07/18 01:45:25;;;;;;;15.90;9.27;;;;;;;15.18;nan;97046.75;3587334;39;20766;-71
2021/07/18 01:47:53;;;;;;;11.97;7.53;;;;;;;15.17;nan;97038.00;3594227;39;20541;-73
2021/07/18 01:50:21;;;;;;;13.83;8.23;;;;;;;15.05;nan;97028.41;3590812;39;20564;-71
2021/07/18 01:52:49;;;;;;;16.43;7.20;;;;;;;15.03;nan;97035.59;3591852;39;20836;-71
2021/07/18 01:55:19;;;;;;;16.70;6.77;;;;;;;15.04;nan;97034.66;3592701;39;20451;-71
2021/07/18 01:57:49;;;;;;;17.53;8.77;;;;;;;15.05;nan;97027.56;3593755;39;20805;-72
2021/07/18 02:00:18;;;;;;;16.93;7.43;;;;;;;15.02;nan;97029.50;3598988;39;20770;-74
2021/07/18 02:02:48;;;;;;;16.10;6.80;;;;;;;14.99;nan;97029.75;3594059;39;20576;-71
2021/07/18 02:05:18;;;;;;;18.10;6.70;;;;;;;14.96;nan;97027.34;3593052;39;20571;-73
2021/07/18 02:07:47;;;;;;;15.23;7.00;;;;;;;14.90;nan;97035.75;3595423;39;20929;-72
2021/07/18 02:10:17;;;;;;;16.97;7.47;;;;;;;14.86;nan;97034.34;3591973;39;20827;-73
2021/07/18 02:12:45;;;;;;;19.50;6.50;;;;;;;14.86;nan;97042.25;3593106;39;20545;-73
2021/07/18 02:15:18;;;;;;;22.20;7.53;;;;;;;14.83;nan;97037.19;3582906;39;20464;-71
2021/07/18 02:17:46;;;;;;;11.47;7.37;;;;;;;14.75;nan;97045.72;3591982;39;20433;-71
2021/07/18 02:20:17;;;;;;;16.63;7.93;;;;;;;14.72;nan;97039.84;3584724;39;20763;-75
2021/07/18 02:22:49;;;;;;;17.27;7.27;;;;;;;14.71;nan;97041.63;3590023;39;20709;-72
2021/07/18 02:25:19;;;;;;;12.20;8.07;;;;;;;14.67;nan;97034.94;3591880;39;20855;-73
2021/07/18 02:27:48;;;;;;;17.53;8.87;;;;;;;14.65;nan;97038.66;3581614;39;20479;-74
2021/07/18 02:30:20;;;;;;;13.00;7.30;;;;;;;14.57;nan;97041.88;3591158;39;20823;-71
2021/07/18 02:32:49;;;;;;;18.10;8.83;;;;;;;14.50;nan;97041.47;3597264;39;20547;-72
2021/07/18 02:35:19;;;;;;;25.37;8.00;;;;;;;14.53;nan;97045.69;3594151;39;20459;-74
2021/07/18 02:37:48;;;;;;;16.00;8.50;;;;;;;14.54;nan;97042.91;3594298;39;20455;-72
2021/07/18 02:40:18;;;;;;;14.33;7.47;;;;;;;14.41;nan;97037.78;3592430;39;20469;-72
2021/07/18 02:42:46;;;;;;;13.93;8.27;;;;;;;14.38;nan;97040.63;3594277;39;20824;-73
2021/07/18 02:45:15;;;;;;;14.97;8.77;;;;;;;14.33;nan;97045.44;3594302;39;20757;-71
2021/07/18 02:47:44;;;;;;;21.60;9.70;;;;;;;14.30;nan;97039.56;3582979;39;20588;-72
2021/07/18 02:50:14;;;;;;;17.43;9.40;;;;;;;14.39;nan;97042.31;3594126;39;20718;-71
2021/07/18 02:52:42;;;;;;;18.83;9.27;;;;;;;14.41;nan;97053.59;3590180;39;20485;-73
2021/07/18 02:55:11;;;;;;;16.50;9.43;;;;;;;14.32;nan;97049.00;3592364;39;20475;-71
2021/07/18 02:57:39;;;;;;;14.53;8.40;;;;;;;14.28;nan;97049.38;3594493;39;20532;-73
2021/07/18 03:00:08;;;;;;;14.63;8.63;;;;;;;14.19;nan;97045.63;3591890;39;20959;-72
2021/07/18 03:02:36;;;;;;;18.57;6.90;;;;;;;14.08;nan;97049.09;3591121;39;20944;-71
2021/07/18 03:05:06;;;;;;;11.23;7.17;;;;;;;14.09;nan;97056.03;3594827;39;20568;-71
2021/07/18 03:07:35;;;;;;;22.23;8.40;;;;;;;14.04;nan;97056.38;3591583;39;20436;-71
2021/07/18 03:10:03;;;;;;;18.57;8.67;;;;;;;14.03;nan;97056.50;3593740;39;20551;-71
2021/07/18 03:12:32;;;;;;;13.00;8.17;;;;;;;13.90;nan;97055.72;3582113;39;20451;-71
2021/07/18 03:15:00;;;;;;;18.70;9.40;;;;;;;13.93;nan;97053.72;3590952;39;21091;-70
2021/07/18 03:17:28;;;;;;;19.60;9.53;;;;;;;14.00;nan;97051.47;3590371;39;20927;-72
2021/07/18 03:19:57;;;;;;;14.63;7.80;;;;;;;13.96;nan;97057.94;3591216;39;20562;-72
2021/07/18 03:22:27;;;;;;;26.20;8.70;;;;;;;13.84;nan;97063.16;3593941;39;20450;-71
2021/07/18 03:24:55;;;;;;;16.43;7.83;;;;;;;13.68;nan;97052.09;3591243;39;20813;-74
2021/07/18 03:27:23;;;;;;;14.03;7.63;;;;;;;13.79;nan;97064.44;3592575;39;20536;-72
2021/07/18 03:29:50;;;;;;;20.80;9.10;;;;;;;13.81;nan;97059.91;3591474;39;21089;-72
2021/07/18 03:32:18;;;;;;;21.53;9.70;;;;;;;13.81;nan;97068.63;3592943;39;20901;-72
2021/07/18 03:34:47;;;;;;;21.67;9.43;;;;;;;13.77;nan;97067.19;3592380;39;20472;-71
2021/07/18 03:37:15;;;;;;;12.97;8.17;;;;;;;13.73;nan;97075.44;3591559;39;20454;-72
2021/07/18 03:39:44;;;;;;;14.33;9.33;;;;;;;13.70;nan;97073.00;3590731;39;20545;-70
2021/07/18 03:42:12;;;;;;;18.80;9.43;;;;;;;13.71;nan;97065.00;3591609;39;20894;-70
2021/07/18 03:44:40;;;;;;;23.10;8.40;;;;;;;13.58;nan;97066.88;3590748;39;20456;-71
2021/07/18 03:47:08;;;;;;;19.20;9.90;;;;;;;13.62;nan;97056.03;3590821;39;20820;-73
2021/07/18 03:49:36;;;;;;;13.93;8.40;;;;;;;13.67;nan;97057.47;3581748;39;20747;-73
2021/07/18 03:52:05;;;;;;;15.33;8.20;;;;;;;13.68;nan;97051.22;3592396;39;20463;-71
2021/07/18 03:54:33;;;;;;;16.23;8.53;;;;;;;13.67;nan;97054.84;3598982;39;20459;-72
2021/07/18 03:57:02;;;;;;;21.57;9.17;;;;;;;13.62;nan;97055.16;3585999;39;20479;-72
2021/07/18 03:59:30;;;;;;;19.20;9.80;;;;;;;13.60;nan;97059.69;3594761;39;20459;-72
2021/07/18 04:01:58;;;;;;;17.47;8.50;;;;;;;13.30;nan;97062.78;3592502;39;20850;-74
2021/07/18 04:04:27;;;;;;;15.03;8.27;;;;;;;13.16;nan;97058.50;3592143;39;20766;-74
2021/07/18 04:06:54;;;;;;;13.57;7.90;;;;;;;13.28;nan;97057.59;3591591;39;20471;-71
2021/07/18 04:09:22;;;;;;;12.30;8.77;;;;;;;13.46;nan;97058.06;3592351;39;20851;-74
2021/07/18 04:11:50;;;;;;;15.93;8.60;;;;;;;13.44;nan;97044.19;3593744;39;20484;-72
2021/07/18 04:14:20;;;;;;;21.00;9.00;;;;;;;13.50;nan;97062.16;3585866;39;20475;-73
2021/07/18 04:16:48;;;;;;;19.90;8.57;;;;;;;13.62;nan;97057.78;3594031;39;20575;-71
2021/07/18 04:19:15;;;;;;;21.00;8.60;;;;;;;13.65;nan;97058.41;3593803;39;20440;-71
2021/07/18 04:21:44;;;;;;;19.00;8.97;;;;;;;13.71;nan;97057.13;3593910;39;20535;-73
2021/07/18 04:24:12;;;;;;;17.53;8.20;;;;;;;13.63;nan;97060.31;3580610;39;20586;-74
2021/07/18 04:26:40;;;;;;;15.00;8.23;;;;;;;13.72;nan;97065.84;3582630;39;20851;-73
2021/07/18 04:29:08;;;;;;;19.00;8.53;;;;;;;13.77;nan;97061.09;3595796;39;20532;-74
2021/07/18 04:31:37;;;;;;;16.03;9.10;;;;;;;13.77;nan;97066.34;3591030;39;20754;-75
2021/07/18 04:34:05;;;;;;;17.43;8.97;;;;;;;13.78;nan;97070.66;3592642;39;20451;-73
2021/07/18 04:36:33;;;;;;;20.13;8.40;;;;;;;13.97;nan;97067.50;3593763;39;20769;-71
2021/07/18 04:39:01;;;;;;;18.60;9.23;;;;;;;13.95;nan;97064.13;3592816;39;20820;-74
2021/07/18 04:41:29;;;;;;;16.13;9.03;;;;;;;13.87;nan;97054.19;3587125;39;20487;-73
2021/07/18 04:43:58;;;;;;;10.73;7.93;;;;;;;14.10;nan;97075.31;3593001;39;20879;-74
2021/07/18 04:46:27;;;;;;;14.13;7.83;;;;;;;13.95;nan;97074.66;3597007;39;20518;-75
2021/07/18 04:48:56;;;;;;;18.67;8.83;;;;;;;14.14;nan;97069.69;3583766;39;20844;-72
2021/07/18 04:51:24;;;;;;;23.03;9.00;;;;;;;14.15;nan;97073.16;3591311;39;20491;-74
2021/07/18 04:53:52;;;;;;;27.20;8.93;;;;;;;14.06;nan;97065.97;3583175;39;20547;-72
2021/07/18 04:56:21;;;;;;;17.30;9.07;;;;;;;14.22;nan;97069.94;3590771;39;20718;-73
2021/07/18 04:58:49;;;;;;;20.33;9.37;;;;;;;13.88;nan;97068.16;3592665;39;20868;-71
2021/07/18 05:01:17;;;;;;;17.80;8.30;;;;;;;13.74;nan;97077.09;3592513;39;20467;-75
2021/07/18 05:03:45;;;;;;;15.00;9.67;;;;;;;13.97;nan;97078.03;3592241;39;20876;-70
2021/07/18 05:06:14;;;;;;;22.73;8.37;;;;;;;13.77;nan;97069.81;3591922;39;21020;-72
2021/07/18 05:08:42;;;;;;;18.37;8.60;;;;;;;14.12;nan;97071.59;3581777;39;20965;-72
2021/07/18 05:11:10;;;;;;;23.90;7.90;;;;;;;14.32;nan;97067.44;3590861;39;20927;-73
2021/07/18 05:13:38;;;;;;;16.73;8.20;;;;;;;14.42;nan;97073.69;3592084;39;20907;-74
2021/07/18 05:16:06;;;;;;;18.37;7.40;;;;;;;14.67;nan;97076.28;3582148;39;20950;-73
2021/07/18 05:18:34;;;;;;;21.30;8.37;;;;;;;14.87;nan;97078.19;3590406;39;20666;-73
2021/07/18 05:21:02;;;;;;;10.43;7.50;;;;;;;15.01;nan;97079.72;3591855;39;20494;-73
2021/07/18 05:23:32;;;;;;;16.17;7.53;;;;;;;15.10;nan;97079.00;3594361;39;20854;-75
2021/07/18 05:25:59;;;;;;;13.60;6.97;;;;;;;15.01;nan;97075.31;3588015;39;20483;-73
2021/07/18 05:28:28;;;;;;;11.93;5.80;;;;;;;15.02;nan;97076.97;3593476;39;20803;-72
2021/07/18 05:30:55;;;;;;;15.57;7.53;;;;;;;15.11;nan;97079.84;3592295;39;20668;-73
2021/07/18 05:33:23;;;;;;;9.77;5.87;;;;;;;15.36;nan;97084.00;3592070;39;20427;-72
2021/07/18 05:35:52;;;;;;;15.80;6.50;;;;;;;15.37;nan;97090.97;3593829;39;20804;-73
2021/07/18 05:38:20;;;;;;;13.80;6.80;;;;;;;15.57;nan;97092.81;3592900;39;20912;-72
2021/07/18 05:41:00;;;;;;;10.73;5.80;;;;;;;15.74;nan;97093.25;3590869;39;20899;-73
2021/07/18 05:43:28;;;;;;;10.93;4.77;;;;;;;15.54;nan;97093.09;3592674;39;20823;-74
2021/07/18 05:45:56;;;;;;;7.87;3.87;;;;;;;15.75;nan;97082.59;3591616;39;20605;-74
2021/07/18 05:48:24;;;;;;;19.83;3.97;;;;;;;15.94;nan;97087.19;3593631;39;20770;-73
2021/07/18 05:50:54;;;;;;;6.90;4.17;;;;;;;16.16;nan;97077.47;3591652;39;20956;-75
2021/07/18 05:53:22;;;;;;;12.10;4.20;;;;;;;16.28;nan;97089.66;3587178;39;20870;-74
2021/07/18 05:55:50;;;;;;;14.43;4.03;;;;;;;16.24;nan;97084.75;3586394;39;20495;-73
2021/07/18 05:58:19;;;;;;;10.40;4.73;;;;;;;16.40;nan;97091.25;3592511;39;20448;-75
2021/07/18 06:00:47;;;;;;;7.57;3.47;;;;;;;16.58;nan;97094.16;3582698;39;21187;-72
2021/07/18 06:03:15;;;;;;;10.53;3.03;;;;;;;16.89;nan;97085.41;3589138;39;20719;-72
2021/07/18 06:05:44;;;;;;;6.40;2.70;;;;;;;16.79;nan;97086.16;3591547;39;20541;-72
2021/07/18 06:08:12;;;;;;;3.53;2.00;;;;;;;16.76;nan;97081.16;3591826;39;21258;-72
2021/07/18 06:10:40;;;;;;;4.73;2.20;;;;;;;17.25;nan;97086.66;3588811;39;20833;-73
2021/07/18 06:13:08;;;;;;;4.57;1.80;;;;;;;17.45;nan;97084.91;3591124;39;20447;-73
2021/07/18 06:15:37;;;;;;;8.63;2.30;;;;;;;17.05;nan;97085.75;3582723;39;20454;-72
2021/07/18 06:18:05;;;;;;;2.70;2.07;;;;;;;17.38;nan;97087.22;3592551;39;20840;-74
2021/07/18 06:20:33;;;;;;;8.50;2.47;;;;;;;17.81;nan;97092.31;3591465;39;20890;-73
2021/07/18 06:23:01;;;;;;;6.97;2.03;;;;;;;17.95;nan;97099.88;3579764;39;20783;-73
2021/07/18 06:25:28;;;;;;;7.30;2.70;;;;;;;17.93;nan;97099.19;3592722;39;20455;-73
2021/07/18 06:27:56;;;;;;;9.13;1.97;;;;;;;18.13;nan;97097.34;3592605;39;20853;-73
2021/07/18 06:30:24;;;;;;;7.77;2.50;;;;;;;17.73;nan;97090.38;3594389;39;20766;-73
2021/07/18 06:32:53;;;;;;;6.40;1.90;;;;;;;17.96;nan;97105.03;3586600;39;20464;-72
2021/07/18 06:35:21;;;;;;;8.63;2.27;;;;;;;17.94;nan;97099.03;3592188;39;20457;-73
2021/07/18 06:37:49;;;;;;;18.20;10.00;;;;;;;17.98;nan;97104.91;3593750;39;20912;-72
2021/07/18 06:40:17;;;;;;;6.03;2.20;;;;;;;18.39;nan;97094.97;3584612;39;20761;-72
2021/07/18 06:42:45;;;;;;;10.20;2.40;;;;;;;18.41;nan;97100.13;3592821;39;20696;-71
2021/07/18 06:45:13;;;;;;;3.50;1.70;;;;;;;18.89;nan;97099.19;3590962;39;20463;-71
2021/07/18 06:47:41;;;;;;;12.63;2.57;;;;;;;19.20;nan;97106.88;3581038;39;20793;-72
2021/07/18 06:50:11;;;;;;;3.97;2.13;;;;;;;19.34;nan;97106.38;3590457;39;20527;-72
2021/07/18 06:52:39;;;;;;;4.67;1.90;;;;;;;19.52;nan;97107.28;3591843;39;20563;-72
2021/07/18 06:55:08;;;;;;;5.67;2.40;;;;;;;19.15;nan;97109.97;3591912;39;20463;-74
2021/07/18 06:57:36;;;;;;;4.90;1.97;;;;;;;19.09;nan;97108.75;3591699;39;20428;-71
2021/07/18 07:00:07;;;;;;;5.63;1.80;;;;;;;19.17;nan;97100.88;3579595;39;20502;-71
2021/07/18 07:02:35;;;;;;;4.87;1.90;;;;;;;19.19;nan;97108.72;3591046;39;20588;-74
2021/07/18 07:05:03;;;;;;;3.27;1.60;;;;;;;19.49;nan;97101.41;3591787;39;20797;-72
2021/07/18 07:07:33;;;;;;;6.60;2.37;;;;;;;19.98;nan;97095.81;3591731;39;20835;-74
2021/07/18 07:10:01;;;;;;;10.33;2.10;;;;;;;20.13;nan;97102.22;3590764;39;20567;-73
2021/07/18 07:12:29;;;;;;;5.47;2.40;;;;;;;19.69;nan;97110.09;3591140;39;20444;-72
2021/07/18 07:14:57;;;;;;;8.03;2.07;;;;;;;20.29;nan;97113.00;3593721;39;20745;-72
2021/07/18 07:17:25;;;;;;;6.23;1.80;;;;;;;20.69;nan;97106.34;3594053;39;20872;-71
2021/07/18 07:19:53;;;;;;;6.23;1.50;;;;;;;20.46;nan;97100.66;3591441;39;20840;-72
2021/07/18 07:22:21;;;;;;;6.20;1.70;;;;;;;20.34;nan;97104.56;3592598;39;20836;-73
2021/07/18 07:24:50;;;;;;;7.60;1.90;;;;;;;20.80;nan;97107.91;3590529;39;20479;-72
2021/07/18 07:27:19;;;;;;;8.43;2.10;;;;;;;21.06;nan;97101.72;3580431;39;20811;-73
2021/07/18 07:29:47;;;;;;;3.83;1.80;;;;;;;20.06;nan;97103.84;3592314;39;20480;-71
2021/07/18 07:32:15;;;;;;;20.77;10.70;;;;;;;20.45;nan;97112.31;3581295;39;20456;-71
2021/07/18 07:34:42;;;;;;;13.03;4.60;;;;;;;20.72;nan;97111.34;3582714;39;20915;-70
2021/07/18 07:37:10;;;;;;;4.63;1.77;;;;;;;20.72;nan;97108.69;3591533;39;20828;-73
2021/07/18 07:39:40;;;;;;;8.83;1.60;;;;;;;21.17;nan;97106.78;3590406;39;20882;-70
2021/07/18 07:42:10;;;;;;;2.80;1.50;;;;;;;21.10;nan;97108.41;3584116;39;20470;-71
2021/07/18 07:44:38;;;;;;;9.90;1.90;;;;;;;21.56;nan;97114.28;3592427;39;20464;-71
2021/07/18 07:47:06;;;;;;;5.77;1.80;;;;;;;21.59;nan;97105.13;3592953;39;20481;-72
2021/07/18 07:49:34;;;;;;;6.13;1.73;;;;;;;21.52;nan;97099.59;3595197;39;20762;-75
2021/07/18 07:52:02;;;;;;;4.40;2.20;;;;;;;21.41;nan;97090.06;3592365;39;20456;-73
2021/07/18 07:54:33;;;;;;;6.93;2.00;;;;;;;21.65;nan;97104.47;3591581;39;20443;-72
2021/07/18 07:57:01;;;;;;;5.37;2.10;;;;;;;20.48;nan;97103.16;3591224;39;20887;-73
2021/07/18 07:59:31;;;;;;;20.70;8.63;;;;;;;20.83;nan;97109.41;3581158;39;20558;-73
2021/07/18 08:01:59;;;;;;;7.13;2.30;;;;;;;21.46;nan;97108.22;3591579;39;20524;-71
2021/07/18 08:04:27;;;;;;;4.37;2.33;;;;;;;21.63;nan;97101.13;3591618;39;20825;-71
2021/07/18 08:06:55;;;;;;;8.67;2.20;;;;;;;21.70;nan;97080.84;3587149;39;20797;-73
2021/07/18 08:09:23;;;;;;;3.77;2.17;;;;;;;21.83;nan;97093.66;3581207;39;20836;-74
2021/07/18 08:11:51;;;;;;;6.40;2.37;;;;;;;20.78;nan;97101.91;3580459;39;20775;-75
2021/07/18 08:14:19;;;;;;;12.10;2.27;;;;;;;21.73;nan;97097.31;3590533;39;20831;-72
2021/07/18 08:16:49;;;;;;;11.57;2.07;;;;;;;22.34;nan;97105.06;3590928;39;20464;-74
2021/07/18 08:19:17;;;;;;;12.87;2.90;;;;;;;22.39;nan;97097.41;3591295;39;20471;-75
2021/07/18 08:21:44;;;;;;;12.60;2.50;;;;;;;22.35;nan;97103.25;3580995;39;20793;-74
2021/07/18 08:24:13;;;;;;;4.23;2.13;;;;;;;22.75;nan;97101.53;3590198;39;20791;-75
2021/07/18 08:26:41;;;;;;;5.23;2.27;;;;;;;23.49;nan;97102.97;3590354;39;20565;-74
2021/07/18 08:29:09;;;;;;;3.97;2.13;;;;;;;23.02;nan;97101.16;3591268;39;20548;-75
2021/07/18 08:31:37;;;;;;;7.47;1.97;;;;;;;23.40;nan;97100.50;3583660;39;20471;-72
2021/07/18 08:34:07;;;;;;;5.67;2.17;;;;;;;22.96;nan;97093.81;3591386;39;20867;-74
2021/07/18 08:36:35;;;;;;;8.83;2.33;;;;;;;23.34;nan;97069.97;3588398;39;20674;-73
2021/07/18 08:39:03;;;;;;;10.90;5.37;;;;;;;23.40;nan;97095.16;3583072;39;20773;-73
2021/07/18 08:41:32;;;;;;;34.40;21.27;;;;;;;23.73;nan;97085.13;3594524;39;20769;-72
2021/07/18 08:44:00;;;;;;;5.17;2.50;;;;;;;23.64;nan;97087.03;3584930;39;21110;-73
2021/07/18 08:46:28;;;;;;;9.40;2.10;;;;;;;24.10;nan;97088.09;3592363;39;20471;-73
2021/07/18 08:48:56;;;;;;;5.90;1.90;;;;;;;23.95;nan;97091.53;3588317;39;20463;-73
2021/07/18 08:51:25;;;;;;;4.20;1.90;;;;;;;24.04;nan;97084.28;3588666;39;20889;-73
2021/07/18 08:53:55;;;;;;;9.30;2.73;;;;;;;24.05;nan;97091.28;3594880;39;21073;-73
2021/07/18 08:56:23;;;;;;;7.70;2.53;;;;;;;24.27;nan;97093.13;3592687;39;20560;-74
2021/07/18 08:58:52;;;;;;;5.10;1.90;;;;;;;23.04;nan;97087.63;3593690;39;20451;-71
2021/07/18 09:01:19;;;;;;;6.83;1.93;;;;;;;23.22;nan;97082.88;3593602;39;20782;-74
2021/07/18 09:03:48;;;;;;;5.33;1.90;;;;;;;23.68;nan;97090.19;3593501;39;20816;-75
2021/07/18 09:06:16;;;;;;;5.63;2.87;;;;;;;24.55;nan;97087.22;3593203;39;20467;-72
2021/07/18 09:08:47;;;;;;;5.00;1.90;;;;;;;23.86;nan;97079.25;3595237;39;20804;-71
2021/07/18 09:11:20;;;;;;;16.60;1.90;;;;;;;24.06;nan;97069.72;3591107;39;20838;-73
2021/07/18 09:14:07;;;;;;;6.30;2.00;;;;;;;23.66;nan;97084.19;3590825;39;20899;-72
2021/07/18 09:16:36;;;;;;;7.70;1.80;;;;;;;24.33;nan;97088.91;3590827;39;20468;-72
2021/07/18 09:19:24;;;;;;;3.10;1.90;;;;;;;24.78;nan;97087.19;3584490;39;20472;-72
2021/07/18 09:22:07;;;;;;;15.83;7.03;;;;;;;24.16;nan;97082.84;3592054;39;20857;-71
2021/07/18 09:24:38;;;;;;;16.43;2.40;;;;;;;24.24;nan;97080.09;3590876;39;20460;-71
2021/07/18 09:27:08;;;;;;;10.70;1.63;;;;;;;24.72;nan;97082.56;3590378;39;20536;-72
2021/07/18 09:29:43;;;;;;;11.93;2.50;;;;;;;25.08;nan;97072.97;3590927;39;20471;-72
2021/07/18 09:32:13;;;;;;;6.33;1.93;;;;;;;25.87;nan;97067.72;3592687;39;20821;-71
2021/07/18 09:34:42;;;;;;;7.10;2.33;;;;;;;26.16;nan;97071.34;3591322;39;20476;-74
2021/07/18 09:37:17;;;;;;;6.77;2.73;;;;;;;25.57;nan;97057.09;3593079;39;20520;-72
2021/07/18 09:39:55;;;;;;;6.40;1.90;;;;;;;25.33;nan;97069.00;3590857;39;20473;-72
2021/07/18 09:42:32;;;;;;;5.10;2.00;;;;;;;25.77;nan;97068.03;3591155;39;20927;-72
2021/07/18 09:45:01;;;;;;;4.60;2.30;;;;;;;25.89;nan;97062.19;3590271;39;20509;-72
2021/07/18 09:47:29;;;;;;;13.70;2.10;;;;;;;25.99;nan;97068.06;3592272;39;20524;-73
2021/07/18 09:49:57;;;;;;;7.27;2.43;;;;;;;25.02;nan;97048.56;3591058;39;20988;-74
2021/07/18 09:52:27;;;;;;;10.30;2.80;;;;;;;24.49;nan;97061.16;3625046;22;20817;-71
2021/07/18 09:54:59;;;;;;;3.93;1.93;;;;;;;25.60;nan;97054.06;3597186;39;20464;-71
2021/07/18 09:57:41;;;;;;;3.83;1.80;;;;;;;25.60;nan;97053.19;3592906;39;20535;-72
2021/07/18 10:00:12;;;;;;;5.10;1.90;;;;;;;26.52;nan;97059.66;3592712;39;20467;-71
2021/07/18 10:02:42;;;;;;;4.00;2.30;;;;;;;26.48;nan;97056.53;3592820;39;20456;-73
2021/07/18 10:05:17;;;;;;;25.90;14.93;;;;;;;26.43;nan;97057.13;3592919;39;20787;-72
2021/07/18 10:07:45;;;;;;;11.87;4.70;;;;;;;26.67;nan;97051.53;3592855;39;20688;-72
2021/07/18 10:10:14;;;;;;;5.90;2.00;;;;;;;27.26;nan;97048.38;3594414;39;20832;-70
2021/07/18 10:12:44;;;;;;;12.87;2.37;;;;;;;26.62;nan;97044.91;3591658;39;20949;-74
2021/07/18 10:15:13;;;;;;;3.60;2.10;;;;;;;25.79;nan;97047.22;3591207;39;20960;-72
2021/07/18 10:17:42;;;;;;;6.97;2.20;;;;;;;25.84;nan;97050.16;3591960;39;20509;-73
2021/07/18 10:20:12;;;;;;;8.43;2.40;;;;;;;26.00;nan;97053.66;3592066;39;20836;-71
2021/07/18 10:22:40;;;;;;;16.83;2.20;;;;;;;25.43;nan;97047.25;3593333;39;20878;-71
2021/07/18 10:25:12;;;;;;;10.00;2.63;;;;;;;25.03;nan;97047.56;3591317;39;20972;-73
2021/07/18 10:27:42;;;;;;;11.63;2.40;;;;;;;25.53;nan;97046.94;3591146;39;20517;-70
2021/07/18 10:30:13;;;;;;;6.33;2.70;;;;;;;25.91;nan;97038.69;3595078;39;20481;-72
2021/07/18 10:32:42;;;;;;;10.80;2.03;;;;;;;26.42;nan;97036.69;3592755;39;20786;-70
2021/07/18 10:35:12;;;;;;;5.17;2.10;;;;;;;26.05;nan;97037.81;3592912;39;20531;-72
2021/07/18 10:37:42;;;;;;;4.37;1.93;;;;;;;26.37;nan;97043.66;3589866;39;20463;-74
2021/07/18 10:40:15;;;;;;;4.30;2.20;;;;;;;27.36;nan;97037.25;3589353;39;20464;-71
2021/07/18 10:42:44;;;;;;;10.33;2.03;;;;;;;27.58;nan;97038.78;3589521;39;20497;-74
2021/07/18 10:45:18;;;;;;;11.33;2.60;;;;;;;27.67;nan;97042.09;3593870;39;20447;-72
2021/07/18 10:47:57;;;;;;;2.50;1.80;;;;;;;27.67;nan;97033.22;3591016;39;20953;-71
2021/07/18 10:50:50;;;;;;;7.10;1.90;;;;;;;27.87;nan;97035.94;3590804;39;20843;-71
2021/07/18 10:53:29;;;;;;;6.20;2.30;;;;;;;25.39;nan;97032.56;3590811;39;20475;-74
2021/07/18 10:55:59;;;;;;;8.50;2.40;;;;;;;26.13;nan;97037.69;3593555;39;20827;-73
2021/07/18 10:58:53;;;;;;;4.10;2.10;;;;;;;27.29;nan;97031.84;3590473;39;20684;-71
2021/07/18 11:01:39;;;;;;;11.77;3.03;;;;;;;27.80;nan;97035.94;3591551;39;20631;-72
2021/07/18 11:04:42;;;;;;;5.73;2.00;;;;;;;29.27;nan;97025.91;3595621;39;20815;-71
2021/07/18 11:07:28;;;;;;;8.73;2.33;;;;;;;28.72;nan;97037.03;3592544;39;21027;-73
2021/07/18 11:09:58;;;;;;;4.67;2.30;;;;;;;28.03;nan;97037.44;3589942;39;20484;-70
2021/07/18 11:12:29;;;;;;;11.23;2.83;;;;;;;27.86;nan;97034.28;3592148;39;20439;-70
2021/07/18 11:15:30;;;;;;;4.10;2.10;;;;;;;27.38;nan;97025.28;3593541;39;21089;-72
2021/07/18 11:18:04;;;;;;;6.50;2.37;;;;;;;26.32;nan;97029.97;3591496;39;20842;-72
2021/07/18 11:21:06;;;;;;;3.97;1.90;;;;;;;27.32;nan;97030.63;3591001;39;20738;-74
2021/07/18 11:23:37;;;;;;;6.73;2.10;;;;;;;28.29;nan;97025.88;3591912;39;20890;-73
2021/07/18 11:26:11;;;;;;;4.87;2.30;;;;;;;28.23;nan;97021.28;3592525;39;21042;-72
2021/07/18 11:28:48;;;;;;;4.70;1.97;;;;;;;27.18;nan;97027.00;3591692;39;20785;-73
2021/07/18 11:31:49;;;;;;;8.37;2.93;;;;;;;26.83;nan;97029.72;3592049;39;20566;-71
2021/07/18 11:34:19;;;;;;;8.70;3.03;;;;;;;27.58;nan;97022.66;3592074;39;20558;-72
2021/07/18 11:37:07;;;;;;;4.87;2.23;;;;;;;28.49;nan;97021.28;3593594;39;20781;-73
2021/07/18 11:39:40;;;;;;;4.67;2.30;;;;;;;28.23;nan;97015.91;3591706;39;20456;-73
2021/07/18 11:42:11;;;;;;;8.70;2.80;;;;;;;28.88;nan;97003.41;3593101;39;20459;-71
2021/07/18 11:44:41;;;;;;;5.77;1.90;;;;;;;29.10;nan;97011.22;3592139;39;20528;-73
2021/07/18 11:47:14;;;;;;;3.60;1.77;;;;;;;28.84;nan;97004.88;3595220;39;21131;-72
2021/07/18 11:49:45;;;;;;;13.17;2.87;;;;;;;28.15;nan;97019.66;3592185;39;20960;-74
2021/07/18 11:52:14;;;;;;;8.67;2.97;;;;;;;29.03;nan;97007.72;3591681;39;20572;-71
2021/07/18 11:54:44;;;;;;;7.60;2.80;;;;;;;28.84;nan;97007.56;3590221;39;20592;-74
2021/07/18 11:57:14;;;;;;;13.20;3.63;;;;;;;28.80;nan;97000.97;3592590;39;20908;-73